createdAt,value
2022-09-22T00:00:29.755Z,4.80
2022-09-22T00:05:56.892Z,5.23
2022-09-22T00:11:04.767Z,4.77
2022-09-22T00:16:18.487Z,5.23
2022-09-22T00:21:31.028Z,5.30
2022-09-22T00:26:49.845Z,5.00
2022-09-22T00:32:03.663Z,4.70
2022-09-22T00:37:26.094Z,5.00
2022-09-22T00:42:40.606Z,5.47
2022-09-22T00:47:59.579Z,4.63
2022-09-22T00:53:25.117Z,4.77
2022-09-22T00:58:38.771Z,4.70
2022-09-22T01:03:55.500Z,4.80
2022-09-22T01:09:16.734Z,4.80
2022-09-22T01:14:41.593Z,4.73
2022-09-22T01:20:38.252Z,4.60
2022-09-22T01:26:23.789Z,5.10
2022-09-22T01:31:45.363Z,4.27
2022-09-22T01:37:12.854Z,4.67
2022-09-22T01:43:01.846Z,4.73
2022-09-22T01:48:32.265Z,5.20
2022-09-22T01:54:08.134Z,4.77
2022-09-22T01:59:28.982Z,4.13
2022-09-22T02:04:48.279Z,4.73
2022-09-22T02:15:41.818Z,3.67
2022-09-22T02:21:35.398Z,4.67
2022-09-22T02:26:59.379Z,4.60
2022-09-22T02:32:11.811Z,4.80
2022-09-22T02:37:38.825Z,4.20
2022-09-22T02:42:57.212Z,4.33
2022-09-22T02:48:13.503Z,4.73
2022-09-22T02:53:31.849Z,3.93
2022-09-22T02:58:38.581Z,4.30
2022-09-22T03:03:50.483Z,4.40
2022-09-22T03:08:58.040Z,4.00
2022-09-22T03:14:05.144Z,4.83
2022-09-22T03:19:13.954Z,4.10
2022-09-22T03:24:26.518Z,4.50
2022-09-22T03:29:31.765Z,4.60
2022-09-22T03:34:41.608Z,4.77
2022-09-22T03:39:56.539Z,4.90
2022-09-22T03:45:04.427Z,4.50
2022-09-22T03:50:11.051Z,4.57
2022-09-22T03:55:26.192Z,4.70
2022-09-22T04:00:32.080Z,4.83
2022-09-22T04:05:37.945Z,4.00
2022-09-22T04:10:47.013Z,4.40
2022-09-22T04:15:54.615Z,4.30
2022-09-22T04:21:03.052Z,4.57
2022-09-22T04:26:10.452Z,5.03
2022-09-22T04:31:17.539Z,5.33
2022-09-22T04:36:26.276Z,4.80
2022-09-22T04:41:36.016Z,4.60
2022-09-22T04:46:47.760Z,5.00
2022-09-22T04:57:26.337Z,4.90
2022-09-22T05:02:30.550Z,4.83
2022-09-22T05:07:36.632Z,4.90
2022-09-22T05:12:46.746Z,5.07
2022-09-22T05:17:54.329Z,4.20
2022-09-22T05:23:04.906Z,4.27
2022-09-22T05:28:23.070Z,4.37
2022-09-22T05:33:33.231Z,3.73
2022-09-22T05:38:42.220Z,4.53
2022-09-22T05:44:00.686Z,4.17
2022-09-22T05:49:20.296Z,4.93
2022-09-22T05:54:25.623Z,4.07
2022-09-22T05:59:35.887Z,3.90
2022-09-22T06:04:49.505Z,4.17
2022-09-22T06:09:57.462Z,3.57
2022-09-22T06:15:05.525Z,3.77
2022-09-22T06:20:11.306Z,3.40
2022-09-22T06:25:20.152Z,3.60
2022-09-22T06:30:47.565Z,2.87
2022-09-22T06:36:03.258Z,2.83
2022-09-22T06:41:46.481Z,3.37
2022-09-22T06:46:56.416Z,3.07
2022-09-22T06:52:07.427Z,3.10
2022-09-22T06:57:20.705Z,2.83
2022-09-22T07:02:29.421Z,3.20
2022-09-22T07:07:48.736Z,3.90
2022-09-22T07:13:15.108Z,3.20
2022-09-22T07:18:41.237Z,3.42
2022-09-22T07:23:53.594Z,3.20
2022-09-22T07:29:01.590Z,3.15
2022-09-22T07:34:09.811Z,3.25
2022-09-22T07:39:28.078Z,3.00
2022-09-22T07:44:54.707Z,3.17
2022-09-22T07:50:07.573Z,2.90
2022-09-22T07:55:27.404Z,3.10
2022-09-22T08:00:35.099Z,2.72
2022-09-22T08:05:43.703Z,2.50
2022-09-22T08:10:53.528Z,3.55
2022-09-22T08:15:58.627Z,3.08
2022-09-22T08:21:10.197Z,2.90
2022-09-22T08:26:22.835Z,2.70
2022-09-22T08:31:30.110Z,3.15
2022-09-22T08:36:36.755Z,2.50
2022-09-22T08:41:55.652Z,2.30
2022-09-22T08:47:22.015Z,2.53
2022-09-22T08:52:43.116Z,2.70
2022-09-22T08:58:03.126Z,2.40
2022-09-22T09:03:30.147Z,2.35
2022-09-22T09:09:06.374Z,2.55
2022-09-22T09:14:31.022Z,2.30
2022-09-22T09:19:47.910Z,2.20
2022-09-22T09:30:33.040Z,1.60
2022-09-22T09:35:46.396Z,1.30
2022-09-22T09:41:12.969Z,1.25
2022-09-22T09:46:41.444Z,1.33
2022-09-22T09:52:06.543Z,1.00
2022-09-22T09:57:38.662Z,1.52
2022-09-22T10:03:06.788Z,0.98
2022-09-22T10:08:39.603Z,1.38
2022-09-22T10:13:49.935Z,1.10
2022-09-22T10:19:09.674Z,0.90
2022-09-22T10:24:31.915Z,0.70
2022-09-22T10:29:46.162Z,0.70
2022-09-22T10:34:58.185Z,0.60
2022-09-22T10:40:21.930Z,0.68
2022-09-22T10:45:44.888Z,0.70
2022-09-22T10:51:17.159Z,0.50
2022-09-22T10:56:40.646Z,0.75
2022-09-22T11:02:01.008Z,0.60
2022-09-22T11:07:39.001Z,1.20
2022-09-22T11:12:57.574Z,1.45
2022-09-22T11:18:56.718Z,1.13
2022-09-22T11:24:15.029Z,0.50
2022-09-22T11:30:14.380Z,0.70
2022-09-22T11:35:37.938Z,1.30
2022-09-22T11:41:11.720Z,0.50
2022-09-22T11:46:25.914Z,0.65
2022-09-22T11:51:58.261Z,0.70
2022-09-22T11:57:13.977Z,1.48
2022-09-22T12:08:09.457Z,0.80
2022-09-22T12:13:37.194Z,0.60
2022-09-22T12:18:50.206Z,0.50
2022-09-22T12:24:02.531Z,0.60
2022-09-22T12:29:34.440Z,0.70
2022-09-22T12:34:50.779Z,0.63
2022-09-22T12:40:19.593Z,0.60
2022-09-22T12:45:33.603Z,0.60
2022-09-22T12:50:45.102Z,0.73
2022-09-22T12:56:00.395Z,0.70
2022-09-22T13:01:34.059Z,0.55
2022-09-22T13:07:02.361Z,0.60
2022-09-22T13:12:42.940Z,0.77
2022-09-22T13:18:02.970Z,0.60
2022-09-22T13:23:12.616Z,1.30
2022-09-22T13:28:21.101Z,0.90
2022-09-22T13:33:27.750Z,0.80
2022-09-22T13:38:36.471Z,0.88
2022-09-22T13:43:49.790Z,0.70
2022-09-22T13:49:08.959Z,0.80
2022-09-22T13:54:21.285Z,0.70
2022-09-22T13:59:39.601Z,0.52
2022-09-22T14:05:17.395Z,0.70
2022-09-22T14:10:24.920Z,0.60
2022-09-22T14:15:48.540Z,0.60
2022-09-22T14:21:25.910Z,0.50
2022-09-22T14:32:20.684Z,0.47
2022-09-22T14:37:34.600Z,0.40
2022-09-22T14:42:46.088Z,0.60
2022-09-22T14:48:27.807Z,0.40
2022-09-22T14:53:38.586Z,0.57
2022-09-22T14:58:56.664Z,0.50
2022-09-22T15:04:23.690Z,0.55
2022-09-22T15:09:35.798Z,0.47
2022-09-22T15:15:07.893Z,1.17
2022-09-22T15:20:26.880Z,0.40
2022-09-22T15:25:35.142Z,0.40
2022-09-22T15:30:49.982Z,0.82
2022-09-22T15:36:34.709Z,0.52
2022-09-22T15:42:08.496Z,0.50
2022-09-22T15:47:30.581Z,0.40
2022-09-22T15:53:12.912Z,0.43
2022-09-22T15:58:41.139Z,0.50
2022-09-22T16:04:03.573Z,0.77
2022-09-22T16:09:20.192Z,0.60
2022-09-22T16:14:41.283Z,0.70
2022-09-22T16:20:01.852Z,0.60
2022-09-22T16:25:32.196Z,0.50
2022-09-22T16:30:41.815Z,0.90
2022-09-22T16:36:00.859Z,1.00
2022-09-22T16:41:35.294Z,0.80
2022-09-22T16:46:47.238Z,0.80
2022-09-22T16:52:02.029Z,0.70
2022-09-22T16:57:21.409Z,1.20
2022-09-22T17:02:48.170Z,0.80
2022-09-22T17:08:06.964Z,1.10
2022-09-22T17:13:19.127Z,1.00
2022-09-22T17:18:23.957Z,1.10
2022-09-22T17:23:34.334Z,1.23
2022-09-22T17:28:49.893Z,1.13
2022-09-22T17:33:55.455Z,1.40
2022-09-22T17:39:05.240Z,1.40
2022-09-22T17:44:15.442Z,1.30
2022-09-22T17:49:38.346Z,1.52
2022-09-22T17:55:11.869Z,1.63
2022-09-22T18:00:26.031Z,1.77
2022-09-22T18:05:43.385Z,1.80
2022-09-22T18:10:57.917Z,1.67
2022-09-22T18:16:23.372Z,1.67
2022-09-22T18:21:29.613Z,1.50
2022-09-22T18:26:55.288Z,1.98
2022-09-22T18:32:12.745Z,2.15
2022-09-22T18:37:32.040Z,1.67
2022-09-22T18:43:03.765Z,1.83
2022-09-22T18:48:27.032Z,1.77
2022-09-22T18:53:49.476Z,1.58
2022-09-22T18:59:33.312Z,2.00
2022-09-22T19:04:46.270Z,2.50
2022-09-22T19:09:59.763Z,2.27
2022-09-22T19:15:09.139Z,2.35
2022-09-22T19:20:26.030Z,2.75
2022-09-22T19:25:44.471Z,2.85
2022-09-22T19:30:53.322Z,2.77
2022-09-22T19:36:04.925Z,2.72
2022-09-22T19:41:13.947Z,3.40
2022-09-22T19:46:29.013Z,3.20
2022-09-22T19:51:35.991Z,3.27
2022-09-22T19:56:40.947Z,3.77
2022-09-22T20:02:03.558Z,3.30
2022-09-22T20:07:14.527Z,3.37
2022-09-22T20:12:27.457Z,2.80
2022-09-22T20:23:09.179Z,3.20
2022-09-22T20:28:23.389Z,3.30
2022-09-22T20:33:35.978Z,2.93
2022-09-22T20:38:51.812Z,4.17
2022-09-22T20:44:01.063Z,3.60
2022-09-22T20:49:19.692Z,3.30
2022-09-22T20:54:39.397Z,2.93
2022-09-22T20:59:49.672Z,3.07
2022-09-22T21:05:24.451Z,3.37
2022-09-22T21:10:48.627Z,3.13
2022-09-22T21:16:08.517Z,3.20
2022-09-22T21:21:30.769Z,4.03
2022-09-22T21:26:44.237Z,3.27
2022-09-22T21:31:56.681Z,3.37
2022-09-22T21:37:18.486Z,3.27
2022-09-22T21:42:31.218Z,3.33
2022-09-22T21:47:44.915Z,3.40
2022-09-22T21:52:54.482Z,3.80
2022-09-22T21:58:04.329Z,3.33
2022-09-22T22:03:27.507Z,3.53
2022-09-22T22:08:37.054Z,3.53
2022-09-22T22:13:53.100Z,3.60
2022-09-22T22:19:06.638Z,3.80
2022-09-22T22:24:34.054Z,4.07
2022-09-22T22:29:44.707Z,3.80
2022-09-22T22:34:56.159Z,3.97
2022-09-22T22:40:07.242Z,4.03
2022-09-22T22:45:36.312Z,4.27
2022-09-22T22:56:22.900Z,3.90
2022-09-22T23:01:57.391Z,4.03
2022-09-22T23:07:22.086Z,4.13
2022-09-22T23:12:28.983Z,4.00
2022-09-22T23:18:13.974Z,3.97
2022-09-22T23:23:29.350Z,3.67
2022-09-22T23:28:42.671Z,3.77
2022-09-22T23:34:12.004Z,3.73
2022-09-22T23:39:23.048Z,3.53
2022-09-22T23:44:33.811Z,3.43
2022-09-22T23:50:17.621Z,3.53
2022-09-22T23:55:26.168Z,3.90
